Terminal Aerodrome Forecast
Issued by NWS

Home | Current Version | Previous Version | Text Only | Print | Product List | Glossary On
Versions: 1 2 3 4 5 6 7 8 9 10 11 12 13 14 15 16 17 18 19 20 21 22
000
FTUS46 KSEW 171800 AAA
TAFOLM
TAF AMD
KOLM 171817Z 1718/1818 20010KT 4SM -RA BR SCT008 SCT020 OVC050
      TEMPO 1718/1721 2SM RA BR BKN008 OVC020
     FM172100 23013G22KT P6SM -SHRA SCT015 BKN028 OVC050
      TEMPO 1721/1801 4SM SHRA BKN015 OVC030
     FM180300 23012KT P6SM BKN035 BKN050 PROB30 1803/1809 -SHRA
     FM180900 20008KT P6SM SCT035 SCT050=

USA.gov is the U.S. government's official web portal to all federal, state and local government web resources and services.